Terminal Aerodrome Forecast
Issued by NWS

Home | Current Version | Previous Version | Text Only | Print | Product List | Glossary Off
Versions: 1 2 3 4 5 6 7 8 9 10 11 12 13 14

000
FTUS45 KGGW 232300
TAFSDY
TAF
KSDY 232337Z 2400/2424 27007KT P6SM SCT070
     FM240600 VRB05KT P6SM BKN140
     FM241500 21009KT P6SM BKN080
      AMD LTD TO CLD VIS AND WIND=

USA.gov is the U.S. government's official web portal to all federal, state and local government web resources and services.